createdAt,value
2019-03-29T04:14:20.692Z,17.43
2019-03-29T04:19:05.816Z,18.17
2019-03-29T04:23:50.796Z,16.83
2019-03-29T04:28:35.879Z,16.57
2019-03-29T04:33:21.300Z,16.27
2019-03-29T04:38:06.516Z,16.47
2019-03-29T04:42:51.692Z,15.73
2019-03-29T04:47:37.135Z,18.97
2019-03-29T04:52:22.274Z,16.80
2019-03-29T04:57:07.335Z,17.13
2019-03-29T05:01:52.456Z,15.03
2019-03-29T05:06:37.658Z,14.07
2019-03-29T05:11:22.660Z,13.90
2019-03-29T05:16:07.751Z,14.97
2019-03-29T05:20:52.923Z,14.23
2019-03-29T05:25:38.070Z,15.13
2019-03-29T05:30:23.494Z,15.03
2019-03-29T05:35:08.628Z,13.53
2019-03-29T05:39:53.795Z,12.97
2019-03-29T05:44:41.432Z,12.93
2019-03-29T05:49:26.652Z,13.47
2019-03-29T05:54:11.796Z,14.03
2019-03-29T05:58:56.967Z,13.83
2019-03-29T06:03:42.084Z,14.33
2019-03-29T06:08:27.516Z,13.63
2019-03-29T06:13:12.627Z,15.07
2019-03-29T06:17:57.769Z,14.50
2019-03-29T06:22:43.311Z,14.13
2019-03-29T06:27:28.331Z,13.87
2019-03-29T06:32:13.638Z,14.03
2019-03-29T06:37:00.704Z,17.67
2019-03-29T06:41:46.111Z,12.97
2019-03-29T06:46:31.303Z,13.50
2019-03-29T06:51:16.499Z,14.57
2019-03-29T06:56:01.585Z,15.10
2019-03-29T07:00:46.892Z,15.60
2019-03-29T07:05:32.256Z,15.73
2019-03-29T07:10:17.525Z,14.53
2019-03-29T07:15:02.615Z,14.43
2019-03-29T07:19:47.868Z,12.33
2019-03-29T07:24:32.957Z,13.20
2019-03-29T07:29:18.341Z,12.80
2019-03-29T07:34:03.626Z,11.90
2019-03-29T07:38:48.857Z,11.73
2019-03-29T07:43:34.082Z,11.13
2019-03-29T07:48:19.314Z,11.47
2019-03-29T07:53:04.346Z,10.70
2019-03-29T07:57:49.624Z,10.13
2019-03-29T08:02:35.217Z,9.93
2019-03-29T08:07:27.035Z,8.63
2019-03-29T08:12:07.314Z,9.03
2019-03-29T08:16:52.590Z,7.70
2019-03-29T08:21:37.886Z,7.50
2019-03-29T08:26:23.061Z,7.17
2019-03-29T08:31:08.203Z,7.50
2019-03-29T08:35:53.448Z,7.37
2019-03-29T08:40:38.565Z,5.13
2019-03-29T08:45:23.918Z,5.17
2019-03-29T08:50:09.139Z,9.83
2019-03-29T08:54:54.432Z,10.13
2019-03-29T08:59:39.527Z,11.10
2019-03-29T09:04:24.686Z,9.80
2019-03-29T09:09:12.041Z,8.70
2019-03-29T09:13:56.707Z,7.47
2019-03-29T09:18:41.900Z,8.53
2019-03-29T09:23:29.926Z,6.90
2019-03-29T09:28:13.826Z,6.50
2019-03-29T09:32:59.176Z,7.50
2019-03-29T09:37:44.475Z,6.33
2019-03-29T09:42:30.498Z,3.60
2019-03-29T09:47:15.933Z,5.23
2019-03-29T09:52:00.973Z,4.10
2019-03-29T09:56:48.303Z,3.50
2019-03-29T10:01:33.705Z,4.20
2019-03-29T10:06:18.925Z,2.87
2019-03-29T10:11:04.052Z,3.40
2019-03-29T10:15:51.324Z,4.00
2019-03-29T10:20:36.054Z,3.20
2019-03-29T10:25:21.796Z,3.20
2019-03-29T10:30:08.677Z,3.50
2019-03-29T10:34:53.916Z,3.00
2019-03-29T10:39:39.198Z,3.20
2019-03-29T10:44:24.438Z,3.67
2019-03-29T10:49:09.624Z,3.60
2019-03-29T10:53:55.009Z,4.00
2019-03-29T10:58:40.285Z,4.57
2019-03-29T11:03:28.540Z,4.00
2019-03-29T11:08:12.406Z,4.90
2019-03-29T11:13:11.332Z,5.17
2019-03-29T11:17:44.538Z,4.53
2019-03-29T11:22:29.791Z,5.20
2019-03-29T11:27:14.908Z,4.93
2019-03-29T11:31:59.999Z,4.63
2019-03-29T11:36:45.176Z,5.47
2019-03-29T11:41:30.386Z,4.33
2019-03-29T11:46:15.552Z,4.87
2019-03-29T11:51:00.878Z,5.43
2019-03-29T11:55:46.188Z,5.13
2019-03-29T12:00:39.035Z,4.97
2019-03-29T12:05:24.172Z,4.90
2019-03-29T12:10:09.453Z,4.70
2019-03-29T12:14:54.490Z,4.50
2019-03-29T12:19:39.795Z,4.30
2019-03-29T12:24:25.317Z,4.77
2019-03-29T12:29:10.414Z,4.40
2019-03-29T12:33:55.702Z,4.00
2019-03-29T12:38:40.902Z,4.23
2019-03-29T12:43:26.020Z,4.70
2019-03-29T12:48:11.573Z,4.50
2019-03-29T12:52:56.628Z,5.30
2019-03-29T12:57:41.804Z,4.97
2019-03-29T13:02:26.974Z,4.90
2019-03-29T13:07:12.067Z,4.90
2019-03-29T13:11:57.215Z,4.80
2019-03-29T13:16:42.385Z,5.03
2019-03-29T13:21:27.564Z,4.90
2019-03-29T13:26:12.821Z,5.33
2019-03-29T13:30:58.143Z,4.17
2019-03-29T13:35:44.626Z,4.67
2019-03-29T13:40:29.859Z,4.43
2019-03-29T13:45:15.164Z,4.40
2019-03-29T13:50:00.443Z,5.50
2019-03-29T13:54:45.409Z,5.67
2019-03-29T13:59:31.944Z,4.87
2019-03-29T14:04:17.395Z,4.43
2019-03-29T14:09:02.426Z,5.10
2019-03-29T14:13:47.550Z,5.30
2019-03-29T14:18:32.638Z,4.70
2019-03-29T14:23:17.994Z,4.30
2019-03-29T14:28:03.152Z,4.30
2019-03-29T14:32:48.434Z,4.73
2019-03-29T14:37:33.828Z,5.00
2019-03-29T14:42:40.570Z,4.87
2019-03-29T14:47:43.292Z,4.57
2019-03-29T14:52:22.867Z,4.97
2019-03-29T14:57:08.160Z,5.03
2019-03-29T15:01:53.270Z,5.50
2019-03-29T15:06:38.481Z,6.63
2019-03-29T15:11:23.630Z,5.40
2019-03-29T15:16:08.790Z,5.00
2019-03-29T15:20:56.931Z,6.20
2019-03-29T15:25:45.796Z,5.03
2019-03-29T15:30:31.029Z,5.10
2019-03-29T15:35:16.119Z,5.63
2019-03-29T15:40:01.309Z,5.70
2019-03-29T15:44:46.473Z,5.00
2019-03-29T15:49:31.603Z,5.53
2019-03-29T15:54:16.825Z,5.57
2019-03-29T15:59:01.902Z,5.57
2019-03-29T16:03:46.990Z,5.40
2019-03-29T16:08:32.151Z,5.17
2019-03-29T16:13:17.203Z,5.40
2019-03-29T16:18:02.333Z,4.67
2019-03-29T16:22:47.750Z,5.00
2019-03-29T16:27:32.880Z,5.57
2019-03-29T16:32:18.144Z,4.70
2019-03-29T16:37:03.243Z,5.40
2019-03-29T16:41:48.277Z,5.40
2019-03-29T16:46:33.403Z,5.53
2019-03-29T16:51:18.545Z,5.60
2019-03-29T16:56:03.946Z,5.20
2019-03-29T17:00:50.048Z,6.07
2019-03-29T17:05:35.207Z,6.40
2019-03-29T17:10:20.447Z,5.43
2019-03-29T17:15:05.995Z,6.67
2019-03-29T17:19:51.049Z,6.43
2019-03-29T17:24:36.231Z,6.67
2019-03-29T17:29:21.305Z,7.10
2019-03-29T17:34:06.340Z,6.87
2019-03-29T17:38:54.696Z,7.57
2019-03-29T17:43:39.852Z,6.63
2019-03-29T17:48:25.115Z,7.77
2019-03-29T17:53:10.397Z,8.07
2019-03-29T17:57:55.629Z,7.43
2019-03-29T18:02:41.006Z,7.77
2019-03-29T18:07:26.236Z,7.40
2019-03-29T18:12:11.577Z,8.83
2019-03-29T18:16:56.801Z,8.87
2019-03-29T18:21:42.078Z,8.63
2019-03-29T18:26:27.237Z,8.87
2019-03-29T18:31:12.628Z,9.17
2019-03-29T18:35:58.070Z,8.17
2019-03-29T18:40:43.454Z,9.43
2019-03-29T18:45:28.746Z,8.67
2019-03-29T18:50:13.970Z,9.43
2019-03-29T18:54:59.290Z,9.67
2019-03-29T18:59:44.587Z,9.70
2019-03-29T19:04:30.044Z,10.30
2019-03-29T19:09:15.675Z,9.63
2019-03-29T19:14:00.840Z,9.50
2019-03-29T19:18:47.172Z,9.23
2019-03-29T19:23:32.560Z,10.70
2019-03-29T19:28:18.180Z,11.23
2019-03-29T19:33:03.305Z,16.53
2019-03-29T19:37:48.598Z,17.07
2019-03-29T19:42:33.826Z,12.60
2019-03-29T19:47:19.070Z,12.37
2019-03-29T19:52:04.394Z,13.30
2019-03-29T19:56:49.863Z,13.87
2019-03-29T20:01:35.595Z,13.70
2019-03-29T20:06:20.905Z,11.33
2019-03-29T20:11:06.339Z,11.60
2019-03-29T20:15:51.650Z,14.03
2019-03-29T20:20:36.868Z,14.30
2019-03-29T20:25:22.050Z,13.40
2019-03-29T20:30:07.490Z,14.37
2019-03-29T20:34:52.668Z,13.67
2019-03-29T20:39:38.175Z,14.93
2019-03-29T20:44:23.427Z,14.10
2019-03-29T20:49:08.747Z,15.13
2019-03-29T20:53:54.064Z,14.40
2019-03-29T20:58:39.363Z,15.90
2019-03-29T21:03:24.919Z,16.20
2019-03-29T21:08:10.266Z,15.07
2019-03-29T21:12:55.838Z,16.33
2019-03-29T21:17:40.965Z,15.30
2019-03-29T21:22:26.068Z,15.60
2019-03-29T21:27:11.228Z,16.60
2019-03-29T21:31:56.549Z,16.10
2019-03-29T21:36:41.850Z,17.40
2019-03-29T21:41:27.352Z,15.93
2019-03-29T21:46:12.705Z,17.03
2019-03-29T21:50:58.072Z,16.97
2019-03-29T21:55:43.621Z,16.23
2019-03-29T22:00:29.022Z,17.20
2019-03-29T22:05:14.308Z,16.43
2019-03-29T22:09:59.633Z,17.30
2019-03-29T22:14:48.113Z,16.90
2019-03-29T22:19:33.817Z,17.10
2019-03-29T22:24:19.153Z,17.20
2019-03-29T22:29:04.529Z,18.57
2019-03-29T22:33:49.763Z,18.57
2019-03-29T22:38:35.209Z,18.33
2019-03-29T22:43:20.554Z,18.70
2019-03-29T22:48:06.316Z,18.03
2019-03-29T22:52:54.509Z,18.13
2019-03-29T22:57:39.523Z,19.17
2019-03-29T23:02:24.851Z,19.07
2019-03-29T23:07:10.154Z,17.40
2019-03-29T23:11:55.254Z,18.73
2019-03-29T23:16:40.314Z,19.73
2019-03-29T23:21:25.549Z,18.50
2019-03-29T23:26:10.767Z,17.73
2019-03-29T23:30:56.164Z,17.47
2019-03-29T23:35:41.565Z,17.83
2019-03-29T23:40:26.681Z,19.13
2019-03-29T23:45:12.102Z,19.87
2019-03-29T23:49:57.316Z,20.77
2019-03-29T23:54:42.542Z,21.10
2019-03-29T23:59:27.682Z,20.83
